createdAt,value
2022-10-17T00:01:27.608Z,104.53
2022-10-17T00:03:54.822Z,116.97
2022-10-17T00:06:22.233Z,127.50
2022-10-17T00:08:49.363Z,122.25
2022-10-17T00:11:23.647Z,125.80
2022-10-17T00:13:54.477Z,116.97
2022-10-17T00:16:40.142Z,129.38
2022-10-17T00:19:07.937Z,125.85
2022-10-17T00:21:35.457Z,136.80
2022-10-17T00:24:02.652Z,136.07
2022-10-17T00:26:30.141Z,140.80
2022-10-17T00:28:57.643Z,118.47
2022-10-17T00:31:25.502Z,126.32
2022-10-17T00:33:53.655Z,127.68
2022-10-17T00:36:23.983Z,113.80
2022-10-17T00:38:56.763Z,84.30
2022-10-17T00:41:32.531Z,85.38
2022-10-17T00:44:03.028Z,88.00
2022-10-17T00:46:33.513Z,90.03
2022-10-17T00:49:04.853Z,85.32
2022-10-17T00:51:55.397Z,81.13
2022-10-17T00:54:29.043Z,77.97
2022-10-17T00:56:57.459Z,94.78
2022-10-17T00:59:29.183Z,95.28
2022-10-17T01:02:06.432Z,91.70
2022-10-17T01:04:33.806Z,91.38
2022-10-17T01:07:01.249Z,85.60
2022-10-17T01:09:28.539Z,86.97
2022-10-17T01:12:15.228Z,82.70
2022-10-17T01:17:24.868Z,93.80
2022-10-17T01:20:12.332Z,85.05
2022-10-17T01:22:57.032Z,92.60
2022-10-17T01:25:30.170Z,105.50
2022-10-17T01:28:22.755Z,100.97
2022-10-17T01:30:59.257Z,99.60
2022-10-17T01:33:47.622Z,90.70
2022-10-17T01:36:32.590Z,93.35
2022-10-17T01:39:12.028Z,94.93
2022-10-17T01:42:05.991Z,108.43
2022-10-17T01:44:44.168Z,107.65
2022-10-17T01:47:16.152Z,115.50
2022-10-17T01:49:46.373Z,111.65
2022-10-17T01:52:19.848Z,115.90
2022-10-17T01:54:56.318Z,178.75
2022-10-17T01:57:35.127Z,152.25
2022-10-17T02:00:08.273Z,165.43
2022-10-17T02:02:41.613Z,151.68
2022-10-17T02:05:10.288Z,180.88
2022-10-17T02:07:37.677Z,169.63
2022-10-17T02:10:13.341Z,149.45
2022-10-17T02:12:43.848Z,150.23
2022-10-17T02:15:49.998Z,151.07
2022-10-17T02:18:52.248Z,172.00
2022-10-17T02:21:28.783Z,202.15
2022-10-17T02:24:47.458Z,222.98
2022-10-17T02:27:54.202Z,237.40
2022-10-17T02:30:34.040Z,230.35
2022-10-17T02:33:26.492Z,223.85
2022-10-17T02:36:03.368Z,228.52
2022-10-17T02:38:32.636Z,230.60
2022-10-17T02:41:01.079Z,215.55
2022-10-17T02:43:29.407Z,257.90
2022-10-17T02:45:58.454Z,231.02
2022-10-17T02:48:40.858Z,238.23
2022-10-17T02:51:31.702Z,249.10
2022-10-17T02:54:20.556Z,249.23
2022-10-17T02:57:00.998Z,235.48
2022-10-17T02:59:30.861Z,270.77
2022-10-17T03:01:58.313Z,266.23
2022-10-17T03:04:25.722Z,224.02
2022-10-17T03:06:53.003Z,214.90
2022-10-17T03:09:20.394Z,212.88
2022-10-17T03:11:47.694Z,212.13
2022-10-17T03:14:15.273Z,254.43
2022-10-17T03:16:43.028Z,273.38
2022-10-17T03:19:10.447Z,277.83
2022-10-17T03:21:38.344Z,285.45
2022-10-17T03:24:08.035Z,313.90
2022-10-17T03:26:35.399Z,354.83
2022-10-17T03:29:04.067Z,304.33
2022-10-17T03:31:33.138Z,302.25
2022-10-17T03:34:03.107Z,304.02
2022-10-17T03:36:30.602Z,314.23
2022-10-17T03:38:58.156Z,300.13
2022-10-17T03:41:25.738Z,368.50
2022-10-17T03:43:54.843Z,191.80
2022-10-17T03:46:23.528Z,167.80
2022-10-17T03:48:50.985Z,370.15
2022-10-17T03:51:18.267Z,197.13
2022-10-17T03:53:50.992Z,388.52
2022-10-17T03:56:23.975Z,216.13
2022-10-17T03:58:58.155Z,256.48
2022-10-17T04:01:25.686Z,297.15
2022-10-17T04:03:55.622Z,383.52
2022-10-17T04:06:23.568Z,300.67
2022-10-17T04:08:50.976Z,274.52
2022-10-17T04:11:25.123Z,294.08
2022-10-17T04:14:00.364Z,222.57
2022-10-17T04:16:29.102Z,249.70
2022-10-17T04:19:03.549Z,297.33
2022-10-17T04:21:36.598Z,283.38
2022-10-17T04:24:10.342Z,290.58
2022-10-17T04:26:43.637Z,207.30
2022-10-17T04:29:11.755Z,225.98
2022-10-17T04:31:40.905Z,230.30
2022-10-17T04:34:18.101Z,188.95
2022-10-17T04:36:45.917Z,214.13
2022-10-17T04:41:46.684Z,399.17
2022-10-17T04:44:14.323Z,258.83
2022-10-17T04:46:46.898Z,557.42
2022-10-17T04:49:14.609Z,323.98
2022-10-17T04:51:44.348Z,385.77
2022-10-17T04:54:21.505Z,428.10
2022-10-17T04:56:54.289Z,482.55
2022-10-17T04:59:21.985Z,335.85
2022-10-17T05:01:56.109Z,531.58
2022-10-17T05:04:24.894Z,410.77
2022-10-17T05:06:53.342Z,446.38
2022-10-17T05:09:39.432Z,313.70
2022-10-17T05:12:09.573Z,487.80
2022-10-17T05:14:40.443Z,426.92
2022-10-17T05:17:08.064Z,337.88
2022-10-17T05:19:36.075Z,521.65
2022-10-17T05:22:03.339Z,486.58
2022-10-17T05:24:30.955Z,421.02
2022-10-17T05:26:58.528Z,422.00
2022-10-17T05:29:26.197Z,389.90
2022-10-17T05:34:35.876Z,304.35
2022-10-17T05:37:03.255Z,467.65
2022-10-17T05:39:32.223Z,381.50
2022-10-17T05:41:59.943Z,321.17
2022-10-17T05:44:28.185Z,340.02
2022-10-17T05:46:59.086Z,278.30
2022-10-17T05:49:45.088Z,266.98
2022-10-17T05:52:15.336Z,323.88
2022-10-17T05:54:55.193Z,400.75
2022-10-17T05:57:25.727Z,326.02
2022-10-17T05:59:53.436Z,303.88
2022-10-17T06:02:22.053Z,350.75
2022-10-17T06:04:50.633Z,359.73
2022-10-17T06:07:20.577Z,280.25
2022-10-17T06:09:48.963Z,306.67
2022-10-17T06:12:16.346Z,345.02
2022-10-17T06:14:44.886Z,496.30
2022-10-17T06:17:15.968Z,474.73
2022-10-17T06:19:45.129Z,310.65
2022-10-17T06:22:14.995Z,445.33
2022-10-17T06:24:43.139Z,513.30
2022-10-17T06:27:12.277Z,355.30
2022-10-17T06:29:41.785Z,366.38
2022-10-17T06:32:12.618Z,314.52
2022-10-17T06:34:43.873Z,355.38
2022-10-17T06:37:11.501Z,234.15
2022-10-17T06:39:40.796Z,294.75
2022-10-17T06:42:17.568Z,173.82
2022-10-17T06:44:55.094Z,291.58
2022-10-17T06:47:42.620Z,222.68
2022-10-17T06:50:42.415Z,238.55
2022-10-17T06:53:19.104Z,282.17
2022-10-17T06:55:51.093Z,299.58
2022-10-17T06:58:25.386Z,157.07
2022-10-17T07:01:23.358Z,129.13
2022-10-17T07:03:57.712Z,166.20
2022-10-17T07:06:25.512Z,121.50
2022-10-17T07:08:55.936Z,145.85
2022-10-17T07:11:23.836Z,94.43
2022-10-17T07:13:52.957Z,90.28
2022-10-17T07:16:22.599Z,94.35
2022-10-17T07:18:57.562Z,100.57
2022-10-17T07:21:27.743Z,93.53
2022-10-17T07:23:54.968Z,90.78
2022-10-17T07:26:22.868Z,91.15
2022-10-17T07:28:55.475Z,92.35
2022-10-17T07:31:48.837Z,97.50
2022-10-17T07:34:16.178Z,86.78
2022-10-17T07:36:44.335Z,83.38
2022-10-17T07:39:13.737Z,69.15
2022-10-17T07:41:41.515Z,73.38
2022-10-17T07:44:08.927Z,70.47
2022-10-17T07:46:42.788Z,70.20
2022-10-17T07:49:12.809Z,84.25
2022-10-17T07:51:41.691Z,74.63
2022-10-17T07:54:09.223Z,68.95
2022-10-17T07:56:36.793Z,65.95
2022-10-17T07:59:06.819Z,61.55
2022-10-17T08:01:37.334Z,49.03
2022-10-17T08:04:04.665Z,52.25
2022-10-17T08:06:32.172Z,54.15
2022-10-17T08:08:59.832Z,50.25
2022-10-17T08:11:27.435Z,52.13
2022-10-17T08:13:54.696Z,53.83
2022-10-17T08:16:22.208Z,48.97
2022-10-17T08:18:49.509Z,35.80
2022-10-17T08:21:17.063Z,27.10
2022-10-17T08:23:44.402Z,29.35
2022-10-17T08:26:20.196Z,28.10
2022-10-17T08:31:20.773Z,29.70
2022-10-17T08:33:49.620Z,28.30
2022-10-17T08:36:19.478Z,42.10
2022-10-17T08:38:51.654Z,30.92
2022-10-17T08:41:48.203Z,32.00
2022-10-17T08:44:25.598Z,17.27
2022-10-17T08:46:59.718Z,26.88
2022-10-17T08:49:42.282Z,19.30
2022-10-17T08:52:22.785Z,19.80
2022-10-17T08:54:51.574Z,28.40
2022-10-17T08:57:19.048Z,17.58
2022-10-17T08:59:52.220Z,14.45
2022-10-17T09:02:40.219Z,17.92
2022-10-17T09:05:26.563Z,26.10
2022-10-17T09:08:09.427Z,31.95
2022-10-17T09:11:18.284Z,34.90
2022-10-17T09:13:57.330Z,32.90
2022-10-17T09:16:37.509Z,40.25
2022-10-17T09:19:17.066Z,33.75
2022-10-17T09:21:49.945Z,28.95
2022-10-17T09:24:25.496Z,29.85
2022-10-17T09:26:54.158Z,21.42
2022-10-17T09:29:32.381Z,28.88
2022-10-17T09:32:25.335Z,16.52
2022-10-17T09:34:56.328Z,20.02
2022-10-17T09:37:33.119Z,14.60
2022-10-17T09:40:01.932Z,15.07
2022-10-17T09:42:29.567Z,22.23
2022-10-17T09:45:18.815Z,12.30
2022-10-17T09:50:35.419Z,14.63
2022-10-17T09:53:12.833Z,22.90
2022-10-17T09:55:43.044Z,14.98
2022-10-17T09:58:11.685Z,18.00
2022-10-17T10:00:45.271Z,13.85
2022-10-17T10:03:27.157Z,12.93
2022-10-17T10:06:18.954Z,19.10
2022-10-17T10:08:55.156Z,17.83
2022-10-17T10:11:45.467Z,14.77
2022-10-17T10:14:40.024Z,18.92
2022-10-17T10:17:26.413Z,15.25
2022-10-17T10:19:54.627Z,13.40
2022-10-17T10:22:26.261Z,9.75
2022-10-17T10:25:17.950Z,14.70
2022-10-17T10:27:50.238Z,11.00
2022-10-17T10:30:25.957Z,24.92
2022-10-17T10:32:53.725Z,16.33
2022-10-17T10:35:28.313Z,16.67
2022-10-17T10:37:59.055Z,16.55
2022-10-17T10:40:49.277Z,10.98
2022-10-17T10:43:41.799Z,14.13
2022-10-17T10:46:25.528Z,16.52
2022-10-17T10:48:59.808Z,11.00
2022-10-17T10:51:35.559Z,17.00
2022-10-17T10:54:17.807Z,14.85
2022-10-17T10:56:51.295Z,12.98
2022-10-17T11:00:07.245Z,12.63
2022-10-17T11:03:10.596Z,12.77
2022-10-17T11:05:57.567Z,11.93
2022-10-17T11:08:55.445Z,10.90
2022-10-17T11:11:33.734Z,10.93
2022-10-17T11:14:13.069Z,14.45
2022-10-17T11:17:03.463Z,14.15
2022-10-17T11:19:45.463Z,12.30
2022-10-17T11:22:23.971Z,12.52
2022-10-17T11:25:04.008Z,10.98
2022-10-17T11:27:34.314Z,15.10
2022-10-17T11:30:03.772Z,12.90
2022-10-17T11:32:37.253Z,12.90
2022-10-17T11:35:22.074Z,9.77
2022-10-17T11:38:06.187Z,9.90
2022-10-17T11:40:40.925Z,10.50
2022-10-17T11:43:18.968Z,18.95
2022-10-17T11:45:53.274Z,12.35
2022-10-17T11:48:59.699Z,7.43
2022-10-17T11:54:29.833Z,17.08
2022-10-17T11:57:15.748Z,8.93
2022-10-17T11:59:55.818Z,11.60
2022-10-17T12:02:29.263Z,10.60
2022-10-17T12:05:15.833Z,9.95
2022-10-17T12:07:50.538Z,12.27
2022-10-17T12:10:33.064Z,11.00
2022-10-17T12:13:28.450Z,9.70
2022-10-17T12:15:57.734Z,18.15
2022-10-17T12:18:27.599Z,8.93
2022-10-17T12:20:59.998Z,12.95
2022-10-17T12:23:29.546Z,14.98
2022-10-17T12:26:04.775Z,11.80
2022-10-17T12:28:39.509Z,12.35
2022-10-17T12:31:16.368Z,10.27
2022-10-17T12:33:46.574Z,12.57
2022-10-17T12:36:17.365Z,12.25
2022-10-17T12:38:49.916Z,12.63
2022-10-17T12:41:40.811Z,9.15
2022-10-17T12:44:14.558Z,12.80
2022-10-17T12:47:01.122Z,14.25
2022-10-17T12:49:39.134Z,14.45
2022-10-17T12:52:35.286Z,15.40
2022-10-17T12:55:13.210Z,9.80
2022-10-17T12:57:47.927Z,9.63
2022-10-17T13:00:19.393Z,21.30
2022-10-17T13:02:49.001Z,14.63
2022-10-17T13:05:32.926Z,19.23
2022-10-17T13:08:03.936Z,6.50
2022-10-17T13:10:35.489Z,11.88
2022-10-17T13:13:11.573Z,34.53
2022-10-17T13:15:38.907Z,31.92
2022-10-17T13:18:06.627Z,26.45
2022-10-17T13:20:34.039Z,15.68
2022-10-17T13:23:01.668Z,9.57
2022-10-17T13:25:29.424Z,27.40
2022-10-17T13:28:07.610Z,9.82
2022-10-17T13:30:36.897Z,5.63
2022-10-17T13:33:19.318Z,15.63
2022-10-17T13:35:59.887Z,21.27
2022-10-17T13:38:32.615Z,25.67
2022-10-17T13:41:23.305Z,11.90
2022-10-17T13:43:52.116Z,22.60
2022-10-17T13:46:40.186Z,41.90
2022-10-17T13:49:39.565Z,14.60
2022-10-17T13:52:15.454Z,6.50
2022-10-17T13:54:45.704Z,9.23
2022-10-17T13:57:23.458Z,9.90
2022-10-17T14:00:03.117Z,4.78
2022-10-17T14:02:41.376Z,12.38
2022-10-17T14:05:17.306Z,11.45
2022-10-17T14:08:20.177Z,12.10
2022-10-17T14:10:47.689Z,9.27
2022-10-17T14:13:22.584Z,6.53
2022-10-17T14:15:50.802Z,6.82
2022-10-17T14:18:35.702Z,10.38
2022-10-17T14:24:13.389Z,10.32
2022-10-17T14:26:55.537Z,12.20
2022-10-17T14:29:32.124Z,29.70
2022-10-17T14:32:11.236Z,10.65
2022-10-17T14:34:40.872Z,5.72
2022-10-17T14:37:12.520Z,11.23
2022-10-17T14:39:40.125Z,13.40
2022-10-17T14:42:16.408Z,10.38
2022-10-17T14:44:53.345Z,6.95
2022-10-17T14:50:13.920Z,9.40
2022-10-17T14:52:43.656Z,16.05
2022-10-17T14:55:26.620Z,19.48
2022-10-17T14:57:54.546Z,21.27
2022-10-17T15:00:24.266Z,17.60
2022-10-17T15:02:53.953Z,25.42
2022-10-17T15:05:24.750Z,24.05
2022-10-17T15:07:52.466Z,33.38
2022-10-17T15:10:37.436Z,75.55
2022-10-17T15:13:26.806Z,54.53
2022-10-17T15:15:52.885Z,81.13
2022-10-17T15:18:20.564Z,23.35
2022-10-17T15:20:51.979Z,20.77
2022-10-17T15:23:27.560Z,30.83
2022-10-17T15:25:54.956Z,16.00
2022-10-17T15:28:22.809Z,11.40
2022-10-17T15:30:50.165Z,12.13
2022-10-17T15:33:18.023Z,12.65
2022-10-17T15:35:52.530Z,29.98
2022-10-17T15:38:20.517Z,11.73
2022-10-17T15:40:51.118Z,15.68
2022-10-17T15:43:19.842Z,18.00
2022-10-17T15:45:48.237Z,20.65
2022-10-17T15:48:23.725Z,15.57
2022-10-17T15:50:51.155Z,15.40
2022-10-17T15:53:18.895Z,26.50
2022-10-17T15:55:46.485Z,30.58
2022-10-17T15:58:16.724Z,22.17
2022-10-17T16:00:45.579Z,29.27
2022-10-17T16:03:14.421Z,31.80
2022-10-17T16:05:41.786Z,28.48
2022-10-17T16:08:09.311Z,40.30
2022-10-17T16:10:39.986Z,38.90
2022-10-17T16:13:16.425Z,59.42
2022-10-17T16:15:43.906Z,144.55
2022-10-17T16:18:11.724Z,174.13
2022-10-17T16:20:39.634Z,163.98
2022-10-17T16:23:08.723Z,160.27
2022-10-17T16:25:36.126Z,156.55
2022-10-17T16:28:04.438Z,153.80
2022-10-17T16:30:34.745Z,146.07
2022-10-17T16:33:02.364Z,148.25
2022-10-17T16:35:34.745Z,150.00
2022-10-17T16:40:34.413Z,129.65
2022-10-17T16:43:02.035Z,139.48
2022-10-17T16:45:29.436Z,123.32
2022-10-17T16:47:57.146Z,142.27
2022-10-17T16:50:24.736Z,133.75
2022-10-17T16:52:52.352Z,127.93
2022-10-17T16:55:19.618Z,126.32
2022-10-17T16:57:49.282Z,139.63
2022-10-17T17:00:19.485Z,152.02
2022-10-17T17:02:50.182Z,162.50
2022-10-17T17:05:17.643Z,162.23
2022-10-17T17:07:47.887Z,171.98
2022-10-17T17:10:15.252Z,179.40
2022-10-17T17:12:42.812Z,178.40
2022-10-17T17:15:10.208Z,176.93
2022-10-17T17:17:49.548Z,181.38
2022-10-17T17:20:17.777Z,169.48
2022-10-17T17:22:45.236Z,139.95
2022-10-17T17:25:12.749Z,147.38
2022-10-17T17:27:40.366Z,156.30
2022-10-17T17:30:08.313Z,160.23
2022-10-17T17:32:35.951Z,146.60
2022-10-17T17:35:03.294Z,140.95
2022-10-17T17:37:33.875Z,130.75
2022-10-17T17:40:01.318Z,132.75
2022-10-17T17:42:28.915Z,157.10
2022-10-17T17:44:56.267Z,162.25
2022-10-17T17:47:23.818Z,159.20
2022-10-17T17:49:51.208Z,133.70
2022-10-17T17:52:18.748Z,158.18
2022-10-17T17:54:46.218Z,164.20
2022-10-17T17:57:13.885Z,157.18
2022-10-17T17:59:41.694Z,109.18
2022-10-17T18:02:11.256Z,114.97
2022-10-17T18:04:38.608Z,115.00
2022-10-17T18:07:06.769Z,126.43
2022-10-17T18:09:34.157Z,119.30
2022-10-17T18:12:01.588Z,122.28
2022-10-17T18:14:28.899Z,111.03
2022-10-17T18:16:56.464Z,107.85
2022-10-17T18:19:24.048Z,97.45
2022-10-17T18:21:51.645Z,99.63
2022-10-17T18:24:19.294Z,119.03
2022-10-17T18:26:46.788Z,100.18
2022-10-17T18:29:14.076Z,95.25
2022-10-17T18:31:41.664Z,89.22
2022-10-17T18:34:09.574Z,79.60
2022-10-17T18:36:38.038Z,91.80
2022-10-17T18:39:05.508Z,93.07
2022-10-17T18:41:33.815Z,99.15
2022-10-17T18:44:03.349Z,99.22
2022-10-17T18:46:36.491Z,151.32
2022-10-17T18:49:04.047Z,107.57
2022-10-17T18:51:32.097Z,108.55
2022-10-17T18:53:59.598Z,94.32
2022-10-17T18:56:27.430Z,94.70
2022-10-17T18:58:55.007Z,93.03
2022-10-17T19:01:26.301Z,76.15
2022-10-17T19:03:56.565Z,57.30
2022-10-17T19:06:27.245Z,68.53
2022-10-17T19:08:54.665Z,55.83
2022-10-17T19:11:25.646Z,69.38
2022-10-17T19:13:53.802Z,66.82
2022-10-17T19:16:27.694Z,50.83
2022-10-17T19:18:57.774Z,42.45
2022-10-17T19:21:25.966Z,65.05
2022-10-17T19:23:56.557Z,82.00
2022-10-17T19:26:26.035Z,121.65
2022-10-17T19:28:54.900Z,139.65
2022-10-17T19:31:27.088Z,144.55
2022-10-17T19:33:56.134Z,152.20
2022-10-17T19:36:30.415Z,156.65
2022-10-17T19:39:08.747Z,173.13
2022-10-17T19:41:36.710Z,152.40
2022-10-17T19:44:04.317Z,157.75
2022-10-17T19:46:34.394Z,116.95
2022-10-17T19:49:03.350Z,122.75
2022-10-17T19:51:31.705Z,113.22
2022-10-17T19:54:00.824Z,121.63
2022-10-17T19:56:32.754Z,134.85
2022-10-17T19:59:00.296Z,148.88
2022-10-17T20:01:32.775Z,144.98
2022-10-17T20:04:00.504Z,135.82
2022-10-17T20:06:28.235Z,119.72
2022-10-17T20:08:56.007Z,127.15
2022-10-17T20:11:26.404Z,127.57
2022-10-17T20:13:55.345Z,115.20
2022-10-17T20:16:25.785Z,90.78
2022-10-17T20:18:56.008Z,75.82
2022-10-17T20:21:27.544Z,88.72
2022-10-17T20:23:55.455Z,109.47
2022-10-17T20:26:36.627Z,104.05
2022-10-17T20:29:11.396Z,95.78
2022-10-17T20:31:40.935Z,95.53
2022-10-17T20:34:10.215Z,119.47
2022-10-17T20:36:37.955Z,115.68
2022-10-17T20:39:10.214Z,111.40
2022-10-17T20:41:39.782Z,94.68
2022-10-17T20:44:07.948Z,83.20
2022-10-17T20:46:38.465Z,81.35
2022-10-17T20:49:11.465Z,105.30
2022-10-17T20:51:39.134Z,121.63
2022-10-17T20:54:06.609Z,111.95
2022-10-17T20:56:35.695Z,76.50
2022-10-17T20:59:10.776Z,71.47
2022-10-17T21:01:38.536Z,85.47
2022-10-17T21:04:33.272Z,110.22
2022-10-17T21:06:54.009Z,121.25
2022-10-17T21:09:22.225Z,119.95
2022-10-17T21:11:52.670Z,116.38
2022-10-17T21:14:20.257Z,127.15
2022-10-17T21:16:48.651Z,102.65
2022-10-17T21:19:16.785Z,117.30
2022-10-17T21:21:46.176Z,121.10
2022-10-17T21:24:18.304Z,116.32
2022-10-17T21:26:48.496Z,129.98
2022-10-17T21:29:16.403Z,111.82
2022-10-17T21:31:45.728Z,113.15
2022-10-17T21:34:17.695Z,106.72
2022-10-17T21:36:45.357Z,104.78
2022-10-17T21:39:14.106Z,142.48
2022-10-17T21:41:43.564Z,126.95
2022-10-17T21:44:14.738Z,112.95
2022-10-17T21:46:43.314Z,98.60
2022-10-17T21:49:15.881Z,74.78
2022-10-17T21:51:44.782Z,60.28
2022-10-17T21:54:12.220Z,55.53
2022-10-17T21:56:40.356Z,52.40
2022-10-17T21:59:08.046Z,52.88
2022-10-17T22:01:38.457Z,69.03
2022-10-17T22:04:09.123Z,49.80
2022-10-17T22:06:40.233Z,64.13
2022-10-17T22:09:21.005Z,74.80
2022-10-17T22:11:51.722Z,81.82
2022-10-17T22:14:20.722Z,103.75
2022-10-17T22:16:49.294Z,156.88
2022-10-17T22:19:20.323Z,116.32
2022-10-17T22:21:47.910Z,141.02
2022-10-17T22:24:16.971Z,129.68
2022-10-17T22:26:44.782Z,139.18
2022-10-17T22:29:12.824Z,128.73
2022-10-17T22:31:41.070Z,112.25
2022-10-17T22:34:11.533Z,113.20
2022-10-17T22:36:42.324Z,127.93
2022-10-17T22:39:10.665Z,99.60
2022-10-17T22:41:38.324Z,106.10
2022-10-17T22:44:06.110Z,213.55
2022-10-17T22:46:34.020Z,147.43
2022-10-17T22:49:01.617Z,116.80
2022-10-17T22:51:29.142Z,105.75
2022-10-17T22:53:56.429Z,102.47
2022-10-17T22:56:23.829Z,116.22
2022-10-17T22:58:51.969Z,125.25
2022-10-17T23:01:22.389Z,120.88
2022-10-17T23:03:50.571Z,100.20
2022-10-17T23:06:18.568Z,118.50
2022-10-17T23:08:45.986Z,183.68
2022-10-17T23:11:13.653Z,137.70
2022-10-17T23:13:41.313Z,222.07
2022-10-17T23:16:09.409Z,234.32
2022-10-17T23:18:37.923Z,233.43
2022-10-17T23:21:06.132Z,169.80
2022-10-17T23:23:33.719Z,135.30
2022-10-17T23:26:14.652Z,154.38
2022-10-17T23:28:43.143Z,139.82
2022-10-17T23:31:18.067Z,146.13
2022-10-17T23:33:46.988Z,117.88
2022-10-17T23:36:16.687Z,104.22
2022-10-17T23:38:45.745Z,126.47
2022-10-17T23:41:13.937Z,108.63
2022-10-17T23:43:41.541Z,95.53
2022-10-17T23:46:09.567Z,84.10
2022-10-17T23:48:38.630Z,73.47
2022-10-17T23:51:07.596Z,91.18
2022-10-17T23:53:35.822Z,94.07
2022-10-17T23:56:03.711Z,122.93
2022-10-17T23:58:31.192Z,166.85
